sensor_id;sensor_type;location;lat;lon;timestamp;temperature;humidity
37204;DHT22;23098;48.054;10.636;2023-03-23T00:01:11;7.80;99.90
37204;DHT22;23098;48.054;10.636;2023-03-23T00:03:38;7.80;99.90
37204;DHT22;23098;48.054;10.636;2023-03-23T00:06:05;7.80;99.90
37204;DHT22;23098;48.054;10.636;2023-03-23T00:08:37;7.80;99.90
37204;DHT22;23098;48.054;10.636;2023-03-23T00:11:17;7.80;99.90
37204;DHT22;23098;48.054;10.636;2023-03-23T00:13:45;7.80;99.90
37204;DHT22;23098;48.054;10.636;2023-03-23T00:16:11;7.80;99.90
37204;DHT22;23098;48.054;10.636;2023-03-23T00:18:55;7.80;99.90
37204;DHT22;23098;48.054;10.636;2023-03-23T00:21:25;7.70;99.90
37204;DHT22;23098;48.054;10.636;2023-03-23T00:23:59;7.70;99.90
37204;DHT22;23098;48.054;10.636;2023-03-23T00:26:25;7.70;99.90
37204;DHT22;23098;48.054;10.636;2023-03-23T00:28:54;7.70;99.90
37204;DHT22;23098;48.054;10.636;2023-03-23T00:31:19;7.70;99.90
37204;DHT22;23098;48.054;10.636;2023-03-23T00:33:45;7.70;99.90
37204;DHT22;23098;48.054;10.636;2023-03-23T00:36:11;7.70;99.90
37204;DHT22;23098;48.054;10.636;2023-03-23T00:38:39;7.60;99.90
37204;DHT22;23098;48.054;10.636;2023-03-23T00:41:05;7.60;99.90
37204;DHT22;23098;48.054;10.636;2023-03-23T00:43:32;7.60;99.90
37204;DHT22;23098;48.054;10.636;2023-03-23T00:46:03;7.60;99.90
37204;DHT22;23098;48.054;10.636;2023-03-23T00:48:34;7.50;99.90
37204;DHT22;23098;48.054;10.636;2023-03-23T00:51:01;7.60;99.90
37204;DHT22;23098;48.054;10.636;2023-03-23T00:53:32;7.60;99.90
37204;DHT22;23098;48.054;10.636;2023-03-23T00:55:57;7.70;99.90
37204;DHT22;23098;48.054;10.636;2023-03-23T00:58:23;7.70;99.90
37204;DHT22;23098;48.054;10.636;2023-03-23T01:00:48;7.60;99.90
37204;DHT22;23098;48.054;10.636;2023-03-23T01:03:14;7.60;99.90
37204;DHT22;23098;48.054;10.636;2023-03-23T01:05:43;7.60;99.90
37204;DHT22;23098;48.054;10.636;2023-03-23T01:08:13;7.60;99.90
37204;DHT22;23098;48.054;10.636;2023-03-23T01:10:39;7.60;99.90
37204;DHT22;23098;48.054;10.636;2023-03-23T01:13:06;7.50;99.90
37204;DHT22;23098;48.054;10.636;2023-03-23T01:15:32;7.60;99.90
37204;DHT22;23098;48.054;10.636;2023-03-23T01:17:57;7.50;99.90
37204;DHT22;23098;48.054;10.636;2023-03-23T01:20:24;7.60;99.90
37204;DHT22;23098;48.054;10.636;2023-03-23T01:22:51;7.50;99.90
37204;DHT22;23098;48.054;10.636;2023-03-23T01:25:18;7.50;99.90
37204;DHT22;23098;48.054;10.636;2023-03-23T01:27:44;7.50;99.90
37204;DHT22;23098;48.054;10.636;2023-03-23T01:30:11;7.50;99.90
37204;DHT22;23098;48.054;10.636;2023-03-23T01:32:37;7.50;99.90
37204;DHT22;23098;48.054;10.636;2023-03-23T01:35:03;7.40;99.90
37204;DHT22;23098;48.054;10.636;2023-03-23T01:37:30;7.40;99.90
37204;DHT22;23098;48.054;10.636;2023-03-23T01:39:56;7.40;99.90
37204;DHT22;23098;48.054;10.636;2023-03-23T01:42:30;7.40;99.90
37204;DHT22;23098;48.054;10.636;2023-03-23T01:47:48;7.40;99.90
37204;DHT22;23098;48.054;10.636;2023-03-23T01:50:16;7.40;99.90
37204;DHT22;23098;48.054;10.636;2023-03-23T01:52:43;7.50;99.90
37204;DHT22;23098;48.054;10.636;2023-03-23T01:55:09;7.40;99.90
37204;DHT22;23098;48.054;10.636;2023-03-23T01:57:34;7.40;99.90
37204;DHT22;23098;48.054;10.636;2023-03-23T02:00:05;7.30;99.90
37204;DHT22;23098;48.054;10.636;2023-03-23T02:02:34;7.30;99.90
37204;DHT22;23098;48.054;10.636;2023-03-23T02:05:06;7.30;99.90
37204;DHT22;23098;48.054;10.636;2023-03-23T02:07:34;7.40;99.90
37204;DHT22;23098;48.054;10.636;2023-03-23T02:09:59;7.40;99.90
37204;DHT22;23098;48.054;10.636;2023-03-23T02:12:25;7.40;99.90
37204;DHT22;23098;48.054;10.636;2023-03-23T02:14:52;7.40;99.90
37204;DHT22;23098;48.054;10.636;2023-03-23T02:27:58;7.50;99.90
37204;DHT22;23098;48.054;10.636;2023-03-23T02:31:05;7.50;99.90
37204;DHT22;23098;48.054;10.636;2023-03-23T02:34:05;7.50;99.90
37204;DHT22;23098;48.054;10.636;2023-03-23T02:39:09;7.50;99.90
37204;DHT22;23098;48.054;10.636;2023-03-23T02:41:50;7.50;99.90
37204;DHT22;23098;48.054;10.636;2023-03-23T02:44:17;7.50;99.90
37204;DHT22;23098;48.054;10.636;2023-03-23T02:46:44;7.50;99.90
37204;DHT22;23098;48.054;10.636;2023-03-23T02:49:12;7.50;99.90
37204;DHT22;23098;48.054;10.636;2023-03-23T02:51:41;7.50;99.90
37204;DHT22;23098;48.054;10.636;2023-03-23T02:54:09;7.50;99.90
37204;DHT22;23098;48.054;10.636;2023-03-23T02:56:36;7.50;99.90
37204;DHT22;23098;48.054;10.636;2023-03-23T02:59:03;7.50;99.90
37204;DHT22;23098;48.054;10.636;2023-03-23T03:03:58;7.60;99.90
37204;DHT22;23098;48.054;10.636;2023-03-23T03:12:03;7.60;99.90
37204;DHT22;23098;48.054;10.636;2023-03-23T03:14:40;7.60;99.90
37204;DHT22;23098;48.054;10.636;2023-03-23T03:17:26;7.60;99.90
37204;DHT22;23098;48.054;10.636;2023-03-23T03:20:01;7.50;99.90
37204;DHT22;23098;48.054;10.636;2023-03-23T03:22:33;7.60;99.90
37204;DHT22;23098;48.054;10.636;2023-03-23T03:24:59;7.50;99.90
37204;DHT22;23098;48.054;10.636;2023-03-23T03:27:26;7.50;99.90
37204;DHT22;23098;48.054;10.636;2023-03-23T03:29:56;7.50;99.90
37204;DHT22;23098;48.054;10.636;2023-03-23T03:32:29;7.50;99.90
37204;DHT22;23098;48.054;10.636;2023-03-23T03:34:59;7.50;99.90
37204;DHT22;23098;48.054;10.636;2023-03-23T03:37:24;7.50;99.90
37204;DHT22;23098;48.054;10.636;2023-03-23T03:39:50;7.60;99.90
37204;DHT22;23098;48.054;10.636;2023-03-23T03:42:16;7.60;99.90
37204;DHT22;23098;48.054;10.636;2023-03-23T03:44:42;7.60;99.90
37204;DHT22;23098;48.054;10.636;2023-03-23T03:47:07;7.70;99.90
37204;DHT22;23098;48.054;10.636;2023-03-23T03:49:33;7.70;99.90
37204;DHT22;23098;48.054;10.636;2023-03-23T03:51:58;7.70;99.90
37204;DHT22;23098;48.054;10.636;2023-03-23T03:54:25;7.70;99.90
37204;DHT22;23098;48.054;10.636;2023-03-23T03:56:51;7.70;99.90
37204;DHT22;23098;48.054;10.636;2023-03-23T03:59:22;7.70;99.90
37204;DHT22;23098;48.054;10.636;2023-03-23T04:01:48;7.80;99.90
37204;DHT22;23098;48.054;10.636;2023-03-23T04:04:19;7.80;99.90
37204;DHT22;23098;48.054;10.636;2023-03-23T04:06:45;7.80;99.90
37204;DHT22;23098;48.054;10.636;2023-03-23T04:09:10;7.80;99.90
37204;DHT22;23098;48.054;10.636;2023-03-23T04:11:36;7.80;99.90
37204;DHT22;23098;48.054;10.636;2023-03-23T04:14:01;7.80;99.90
37204;DHT22;23098;48.054;10.636;2023-03-23T04:16:27;7.80;99.90
37204;DHT22;23098;48.054;10.636;2023-03-23T04:18:55;7.80;99.90
37204;DHT22;23098;48.054;10.636;2023-03-23T04:21:21;7.80;99.90
37204;DHT22;23098;48.054;10.636;2023-03-23T04:23:47;7.80;99.90
37204;DHT22;23098;48.054;10.636;2023-03-23T04:26:12;7.80;99.90
37204;DHT22;23098;48.054;10.636;2023-03-23T04:28:39;7.80;99.90
37204;DHT22;23098;48.054;10.636;2023-03-23T04:31:04;7.80;99.90
37204;DHT22;23098;48.054;10.636;2023-03-23T04:33:30;7.80;99.90
37204;DHT22;23098;48.054;10.636;2023-03-23T04:35:58;7.80;99.90
37204;DHT22;23098;48.054;10.636;2023-03-23T04:38:27;7.80;99.90
37204;DHT22;23098;48.054;10.636;2023-03-23T04:40:53;7.80;99.90
37204;DHT22;23098;48.054;10.636;2023-03-23T04:43:19;7.80;99.90
37204;DHT22;23098;48.054;10.636;2023-03-23T04:45:56;7.80;99.90
37204;DHT22;23098;48.054;10.636;2023-03-23T04:48:28;7.80;99.90
37204;DHT22;23098;48.054;10.636;2023-03-23T04:50:55;7.80;99.90
37204;DHT22;23098;48.054;10.636;2023-03-23T04:53:21;7.80;99.90
37204;DHT22;23098;48.054;10.636;2023-03-23T04:55:47;7.90;99.90
37204;DHT22;23098;48.054;10.636;2023-03-23T04:58:16;7.90;99.90
37204;DHT22;23098;48.054;10.636;2023-03-23T05:00:42;8.00;99.90
37204;DHT22;23098;48.054;10.636;2023-03-23T05:03:17;8.00;99.90
37204;DHT22;23098;48.054;10.636;2023-03-23T05:05:44;8.10;99.90
37204;DHT22;23098;48.054;10.636;2023-03-23T05:08:13;8.00;99.90
37204;DHT22;23098;48.054;10.636;2023-03-23T05:10:39;8.10;99.90
37204;DHT22;23098;48.054;10.636;2023-03-23T05:13:05;8.10;99.90
37204;DHT22;23098;48.054;10.636;2023-03-23T05:15:30;8.10;99.90
37204;DHT22;23098;48.054;10.636;2023-03-23T05:17:57;8.20;99.90
37204;DHT22;23098;48.054;10.636;2023-03-23T05:20:22;8.30;99.90
37204;DHT22;23098;48.054;10.636;2023-03-23T05:22:48;8.20;99.90
37204;DHT22;23098;48.054;10.636;2023-03-23T05:25:15;8.20;99.90
37204;DHT22;23098;48.054;10.636;2023-03-23T05:27:41;8.20;99.90
37204;DHT22;23098;48.054;10.636;2023-03-23T05:30:14;8.20;99.90
37204;DHT22;23098;48.054;10.636;2023-03-23T05:32:43;8.20;99.90
37204;DHT22;23098;48.054;10.636;2023-03-23T05:35:10;8.20;99.90
37204;DHT22;23098;48.054;10.636;2023-03-23T05:37:37;8.20;99.90
37204;DHT22;23098;48.054;10.636;2023-03-23T05:40:04;8.30;99.90
37204;DHT22;23098;48.054;10.636;2023-03-23T05:42:32;8.50;99.90
37204;DHT22;23098;48.054;10.636;2023-03-23T05:44:58;8.50;99.90
37204;DHT22;23098;48.054;10.636;2023-03-23T05:47:24;8.60;99.90
37204;DHT22;23098;48.054;10.636;2023-03-23T05:49:50;8.60;99.90
37204;DHT22;23098;48.054;10.636;2023-03-23T05:52:17;8.70;99.90
37204;DHT22;23098;48.054;10.636;2023-03-23T05:54:43;8.70;99.90
37204;DHT22;23098;48.054;10.636;2023-03-23T05:57:08;8.70;99.90
37204;DHT22;23098;48.054;10.636;2023-03-23T05:59:35;8.70;99.90
37204;DHT22;23098;48.054;10.636;2023-03-23T06:02:00;8.70;99.90
37204;DHT22;23098;48.054;10.636;2023-03-23T06:04:26;8.80;99.90
37204;DHT22;23098;48.054;10.636;2023-03-23T06:06:52;8.80;99.90
37204;DHT22;23098;48.054;10.636;2023-03-23T06:09:18;8.80;99.90
37204;DHT22;23098;48.054;10.636;2023-03-23T06:11:44;8.80;99.90
37204;DHT22;23098;48.054;10.636;2023-03-23T06:14:10;9.00;99.90
37204;DHT22;23098;48.054;10.636;2023-03-23T06:16:37;9.10;99.90
37204;DHT22;23098;48.054;10.636;2023-03-23T06:19:02;9.20;99.90
37204;DHT22;23098;48.054;10.636;2023-03-23T06:21:32;9.30;99.90
37204;DHT22;23098;48.054;10.636;2023-03-23T06:23:58;9.40;99.90
37204;DHT22;23098;48.054;10.636;2023-03-23T06:26:28;9.50;99.90
37204;DHT22;23098;48.054;10.636;2023-03-23T06:28:53;9.50;99.90
37204;DHT22;23098;48.054;10.636;2023-03-23T06:31:19;9.60;99.90
37204;DHT22;23098;48.054;10.636;2023-03-23T06:33:45;9.80;99.90
37204;DHT22;23098;48.054;10.636;2023-03-23T06:36:12;9.90;99.90
37204;DHT22;23098;48.054;10.636;2023-03-23T06:38:38;9.90;99.90
37204;DHT22;23098;48.054;10.636;2023-03-23T06:41:03;10.00;99.90
37204;DHT22;23098;48.054;10.636;2023-03-23T06:43:30;10.10;99.90
37204;DHT22;23098;48.054;10.636;2023-03-23T06:45:59;10.20;99.90
37204;DHT22;23098;48.054;10.636;2023-03-23T06:48:26;10.20;99.90
37204;DHT22;23098;48.054;10.636;2023-03-23T06:50:59;10.30;99.90
37204;DHT22;23098;48.054;10.636;2023-03-23T06:53:26;10.40;99.90
37204;DHT22;23098;48.054;10.636;2023-03-23T06:58:27;10.60;99.90
37204;DHT22;23098;48.054;10.636;2023-03-23T07:00:55;10.70;99.90
37204;DHT22;23098;48.054;10.636;2023-03-23T07:11:01;11.40;99.90
37204;DHT22;23098;48.054;10.636;2023-03-23T07:13:27;11.70;99.90
37204;DHT22;23098;48.054;10.636;2023-03-23T07:15:53;11.80;99.90
37204;DHT22;23098;48.054;10.636;2023-03-23T07:18:19;11.90;99.90
37204;DHT22;23098;48.054;10.636;2023-03-23T07:20:49;11.90;99.90
37204;DHT22;23098;48.054;10.636;2023-03-23T07:23:16;12.00;99.90
37204;DHT22;23098;48.054;10.636;2023-03-23T07:25:43;12.00;99.90
37204;DHT22;23098;48.054;10.636;2023-03-23T07:28:11;12.10;99.90
37204;DHT22;23098;48.054;10.636;2023-03-23T07:30:38;12.10;99.90
37204;DHT22;23098;48.054;10.636;2023-03-23T07:33:05;12.20;99.90
37204;DHT22;23098;48.054;10.636;2023-03-23T07:35:32;12.30;99.90
37204;DHT22;23098;48.054;10.636;2023-03-23T07:37:59;12.50;99.90
37204;DHT22;23098;48.054;10.636;2023-03-23T07:40:25;12.50;99.90
37204;DHT22;23098;48.054;10.636;2023-03-23T07:42:54;12.60;99.90
37204;DHT22;23098;48.054;10.636;2023-03-23T07:45:20;12.70;99.90
37204;DHT22;23098;48.054;10.636;2023-03-23T07:47:46;12.80;99.90
37204;DHT22;23098;48.054;10.636;2023-03-23T07:50:12;12.80;99.90
37204;DHT22;23098;48.054;10.636;2023-03-23T07:52:39;13.00;99.90
37204;DHT22;23098;48.054;10.636;2023-03-23T07:55:08;13.10;99.90
37204;DHT22;23098;48.054;10.636;2023-03-23T07:57:34;13.30;99.90
37204;DHT22;23098;48.054;10.636;2023-03-23T08:00:00;13.40;99.90
37204;DHT22;23098;48.054;10.636;2023-03-23T08:02:26;13.60;99.90
37204;DHT22;23098;48.054;10.636;2023-03-23T08:04:52;13.70;99.90
37204;DHT22;23098;48.054;10.636;2023-03-23T08:07:19;13.90;99.90
37204;DHT22;23098;48.054;10.636;2023-03-23T08:09:46;14.00;99.90
37204;DHT22;23098;48.054;10.636;2023-03-23T08:12:13;14.10;99.90
37204;DHT22;23098;48.054;10.636;2023-03-23T08:14:39;14.20;99.90
37204;DHT22;23098;48.054;10.636;2023-03-23T08:17:08;14.30;99.90
37204;DHT22;23098;48.054;10.636;2023-03-23T08:19:36;14.40;99.90
37204;DHT22;23098;48.054;10.636;2023-03-23T08:22:05;14.40;99.50
37204;DHT22;23098;48.054;10.636;2023-03-23T08:24:32;14.60;99.70
37204;DHT22;23098;48.054;10.636;2023-03-23T08:26:58;14.70;99.70
37204;DHT22;23098;48.054;10.636;2023-03-23T08:29:24;14.80;99.20
37204;DHT22;23098;48.054;10.636;2023-03-23T08:31:50;14.90;99.00
37204;DHT22;23098;48.054;10.636;2023-03-23T08:34:15;15.00;99.10
37204;DHT22;23098;48.054;10.636;2023-03-23T08:36:41;15.20;98.30
37204;DHT22;23098;48.054;10.636;2023-03-23T08:39:09;15.30;98.40
37204;DHT22;23098;48.054;10.636;2023-03-23T08:41:36;15.50;98.50
37204;DHT22;23098;48.054;10.636;2023-03-23T08:44:02;15.60;98.00
37204;DHT22;23098;48.054;10.636;2023-03-23T08:46:28;15.70;96.90
37204;DHT22;23098;48.054;10.636;2023-03-23T08:48:54;15.80;96.90
37204;DHT22;23098;48.054;10.636;2023-03-23T08:51:20;15.90;95.60
37204;DHT22;23098;48.054;10.636;2023-03-23T08:53:47;15.90;95.90
37204;DHT22;23098;48.054;10.636;2023-03-23T08:56:13;16.00;95.60
37204;DHT22;23098;48.054;10.636;2023-03-23T08:58:39;16.00;94.80
37204;DHT22;23098;48.054;10.636;2023-03-23T09:01:06;16.00;95.20
37204;DHT22;23098;48.054;10.636;2023-03-23T09:03:33;16.10;95.60
37204;DHT22;23098;48.054;10.636;2023-03-23T09:06:01;16.10;94.80
37204;DHT22;23098;48.054;10.636;2023-03-23T09:08:28;16.20;94.40
37204;DHT22;23098;48.054;10.636;2023-03-23T09:11:01;16.30;94.60
37204;DHT22;23098;48.054;10.636;2023-03-23T09:13:28;16.40;93.70
37204;DHT22;23098;48.054;10.636;2023-03-23T09:15:53;16.50;93.80
37204;DHT22;23098;48.054;10.636;2023-03-23T09:18:19;16.60;93.60
37204;DHT22;23098;48.054;10.636;2023-03-23T09:20:45;16.70;93.70
37204;DHT22;23098;48.054;10.636;2023-03-23T09:23:12;16.80;94.00
37204;DHT22;23098;48.054;10.636;2023-03-23T09:25:38;16.80;93.30
37204;DHT22;23098;48.054;10.636;2023-03-23T09:28:05;16.90;92.90
37204;DHT22;23098;48.054;10.636;2023-03-23T09:30:32;16.90;93.40
37204;DHT22;23098;48.054;10.636;2023-03-23T09:33:00;16.80;93.10
37204;DHT22;23098;48.054;10.636;2023-03-23T09:35:32;16.80;93.40
37204;DHT22;23098;48.054;10.636;2023-03-23T09:37:59;16.70;92.80
37204;DHT22;23098;48.054;10.636;2023-03-23T09:40:47;16.60;93.40
37204;DHT22;23098;48.054;10.636;2023-03-23T09:43:38;16.50;93.10
37204;DHT22;23098;48.054;10.636;2023-03-23T09:46:29;16.40;93.40
37204;DHT22;23098;48.054;10.636;2023-03-23T09:49:21;16.40;93.70
37204;DHT22;23098;48.054;10.636;2023-03-23T09:51:52;16.40;93.40
37204;DHT22;23098;48.054;10.636;2023-03-23T09:54:28;16.40;93.60
37204;DHT22;23098;48.054;10.636;2023-03-23T09:56:55;16.40;93.80
37204;DHT22;23098;48.054;10.636;2023-03-23T09:59:51;16.40;93.70
37204;DHT22;23098;48.054;10.636;2023-03-23T10:02:27;16.40;93.30
37204;DHT22;23098;48.054;10.636;2023-03-23T10:04:56;16.30;93.20
37204;DHT22;23098;48.054;10.636;2023-03-23T10:07:25;16.30;93.50
37204;DHT22;23098;48.054;10.636;2023-03-23T10:09:55;16.40;93.60
37204;DHT22;23098;48.054;10.636;2023-03-23T10:12:33;16.40;93.20
37204;DHT22;23098;48.054;10.636;2023-03-23T10:21:17;16.70;93.60
37204;DHT22;23098;48.054;10.636;2023-03-23T10:23:56;16.60;93.10
37204;DHT22;23098;48.054;10.636;2023-03-23T10:29:04;17.00;93.30
37204;DHT22;23098;48.054;10.636;2023-03-23T10:31:40;17.30;93.60
37204;DHT22;23098;48.054;10.636;2023-03-23T10:34:20;17.50;92.60
37204;DHT22;23098;48.054;10.636;2023-03-23T10:37:21;17.40;93.00
37204;DHT22;23098;48.054;10.636;2023-03-23T10:39:58;17.60;93.30
37204;DHT22;23098;48.054;10.636;2023-03-23T10:42:36;17.80;93.20
37204;DHT22;23098;48.054;10.636;2023-03-23T10:45:15;17.90;93.10
37204;DHT22;23098;48.054;10.636;2023-03-23T10:47:46;18.00;92.50
37204;DHT22;23098;48.054;10.636;2023-03-23T10:50:15;18.20;92.20
37204;DHT22;23098;48.054;10.636;2023-03-23T10:52:43;18.40;92.10
37204;DHT22;23098;48.054;10.636;2023-03-23T10:55:23;18.40;91.90
37204;DHT22;23098;48.054;10.636;2023-03-23T10:58:01;18.40;91.90
37204;DHT22;23098;48.054;10.636;2023-03-23T11:00:27;18.80;91.20
37204;DHT22;23098;48.054;10.636;2023-03-23T11:05:50;18.50;91.90
37204;DHT22;23098;48.054;10.636;2023-03-23T11:08:46;18.30;91.80
37204;DHT22;23098;48.054;10.636;2023-03-23T11:11:17;18.40;92.10
37204;DHT22;23098;48.054;10.636;2023-03-23T11:13:48;18.40;91.80
37204;DHT22;23098;48.054;10.636;2023-03-23T11:16:44;18.20;91.50
37204;DHT22;23098;48.054;10.636;2023-03-23T11:19:33;18.40;91.50
37204;DHT22;23098;48.054;10.636;2023-03-23T11:22:08;18.80;91.50
37204;DHT22;23098;48.054;10.636;2023-03-23T11:24:43;19.00;91.40
37204;DHT22;23098;48.054;10.636;2023-03-23T11:27:11;19.00;90.90
37204;DHT22;23098;48.054;10.636;2023-03-23T11:29:54;18.90;91.50
37204;DHT22;23098;48.054;10.636;2023-03-23T11:32:22;18.60;90.40
37204;DHT22;23098;48.054;10.636;2023-03-23T11:34:53;18.40;90.50
37204;DHT22;23098;48.054;10.636;2023-03-23T11:37:43;18.30;90.40
37204;DHT22;23098;48.054;10.636;2023-03-23T11:40:17;18.30;90.50
37204;DHT22;23098;48.054;10.636;2023-03-23T11:45:31;18.60;90.70
37204;DHT22;23098;48.054;10.636;2023-03-23T11:50:47;18.50;90.30
37204;DHT22;23098;48.054;10.636;2023-03-23T11:53:50;18.40;90.70
37204;DHT22;23098;48.054;10.636;2023-03-23T11:56:36;18.50;90.80
37204;DHT22;23098;48.054;10.636;2023-03-23T11:59:08;18.60;90.80
37204;DHT22;23098;48.054;10.636;2023-03-23T12:01:56;18.30;91.00
37204;DHT22;23098;48.054;10.636;2023-03-23T12:10:23;17.80;91.20
37204;DHT22;23098;48.054;10.636;2023-03-23T12:23:46;17.40;92.10
37204;DHT22;23098;48.054;10.636;2023-03-23T12:31:15;17.40;92.10
37204;DHT22;23098;48.054;10.636;2023-03-23T12:33:49;17.30;92.00
37204;DHT22;23098;48.054;10.636;2023-03-23T12:36:28;17.20;91.80
37204;DHT22;23098;48.054;10.636;2023-03-23T12:39:31;17.30;92.10
37204;DHT22;23098;48.054;10.636;2023-03-23T12:44:50;17.70;91.70
37204;DHT22;23098;48.054;10.636;2023-03-23T12:50:03;17.60;91.00
37204;DHT22;23098;48.054;10.636;2023-03-23T12:55:27;17.40;91.30
37204;DHT22;23098;48.054;10.636;2023-03-23T12:58:37;17.40;92.00
37204;DHT22;23098;48.054;10.636;2023-03-23T13:06:08;17.10;92.40
37204;DHT22;23098;48.054;10.636;2023-03-23T13:08:43;17.00;92.50
37204;DHT22;23098;48.054;10.636;2023-03-23T13:11:32;16.90;92.70
37204;DHT22;23098;48.054;10.636;2023-03-23T13:28:18;17.20;92.90
37204;DHT22;23098;48.054;10.636;2023-03-23T13:31:01;17.50;93.00
37204;DHT22;23098;48.054;10.636;2023-03-23T13:33:33;17.60;92.20
37204;DHT22;23098;48.054;10.636;2023-03-23T13:36:05;17.40;93.20
37204;DHT22;23098;48.054;10.636;2023-03-23T13:38:32;17.60;93.30
37204;DHT22;23098;48.054;10.636;2023-03-23T13:41:05;17.60;92.60
37204;DHT22;23098;48.054;10.636;2023-03-23T13:43:33;17.60;92.40
37204;DHT22;23098;48.054;10.636;2023-03-23T13:48:51;17.10;92.50
37204;DHT22;23098;48.054;10.636;2023-03-23T13:56:52;16.90;92.40
37204;DHT22;23098;48.054;10.636;2023-03-23T14:01:55;16.80;93.00
37204;DHT22;23098;48.054;10.636;2023-03-23T14:04:23;16.70;92.70
37204;DHT22;23098;48.054;10.636;2023-03-23T14:06:57;16.70;93.00
37204;DHT22;23098;48.054;10.636;2023-03-23T14:09:41;16.70;92.80
37204;DHT22;23098;48.054;10.636;2023-03-23T14:12:17;16.50;93.00
37204;DHT22;23098;48.054;10.636;2023-03-23T14:14:54;16.40;93.10
37204;DHT22;23098;48.054;10.636;2023-03-23T14:17:25;16.30;93.30
37204;DHT22;23098;48.054;10.636;2023-03-23T14:19:53;16.30;93.20
37204;DHT22;23098;48.054;10.636;2023-03-23T14:22:38;16.20;93.20
37204;DHT22;23098;48.054;10.636;2023-03-23T14:25:16;16.20;93.50
37204;DHT22;23098;48.054;10.636;2023-03-23T14:27:43;16.20;93.60
37204;DHT22;23098;48.054;10.636;2023-03-23T14:30:20;16.20;93.80
37204;DHT22;23098;48.054;10.636;2023-03-23T14:32:47;16.20;94.20
37204;DHT22;23098;48.054;10.636;2023-03-23T14:35:27;16.20;93.70
37204;DHT22;23098;48.054;10.636;2023-03-23T14:37:57;16.10;93.80
37204;DHT22;23098;48.054;10.636;2023-03-23T14:40:26;16.20;94.10
37204;DHT22;23098;48.054;10.636;2023-03-23T14:42:53;16.10;94.30
37204;DHT22;23098;48.054;10.636;2023-03-23T14:45:21;16.10;94.10
37204;DHT22;23098;48.054;10.636;2023-03-23T14:48:06;16.10;94.10
37204;DHT22;23098;48.054;10.636;2023-03-23T14:50:48;16.00;94.00
37204;DHT22;23098;48.054;10.636;2023-03-23T14:53:36;16.00;94.20
37204;DHT22;23098;48.054;10.636;2023-03-23T14:56:09;16.00;94.00
37204;DHT22;23098;48.054;10.636;2023-03-23T14:58:35;16.00;93.80
37204;DHT22;23098;48.054;10.636;2023-03-23T15:01:05;16.00;94.10
37204;DHT22;23098;48.054;10.636;2023-03-23T15:03:36;16.00;94.60
37204;DHT22;23098;48.054;10.636;2023-03-23T15:06:10;16.00;94.20
37204;DHT22;23098;48.054;10.636;2023-03-23T15:08:38;16.00;94.70
37204;DHT22;23098;48.054;10.636;2023-03-23T15:11:20;16.00;94.80
37204;DHT22;23098;48.054;10.636;2023-03-23T15:13:51;16.00;94.80
37204;DHT22;23098;48.054;10.636;2023-03-23T15:16:23;16.00;94.50
37204;DHT22;23098;48.054;10.636;2023-03-23T15:19:02;16.00;94.10
37204;DHT22;23098;48.054;10.636;2023-03-23T15:21:33;15.90;94.50
37204;DHT22;23098;48.054;10.636;2023-03-23T15:24:01;15.90;94.20
37204;DHT22;23098;48.054;10.636;2023-03-23T15:26:31;15.90;94.30
37204;DHT22;23098;48.054;10.636;2023-03-23T15:31:33;15.80;94.50
37204;DHT22;23098;48.054;10.636;2023-03-23T15:34:03;15.70;94.60
37204;DHT22;23098;48.054;10.636;2023-03-23T15:36:33;15.70;94.90
37204;DHT22;23098;48.054;10.636;2023-03-23T15:38:59;15.60;95.10
37204;DHT22;23098;48.054;10.636;2023-03-23T15:41:27;15.50;95.50
37204;DHT22;23098;48.054;10.636;2023-03-23T15:43:56;15.40;95.80
37204;DHT22;23098;48.054;10.636;2023-03-23T15:46:27;15.30;95.80
37204;DHT22;23098;48.054;10.636;2023-03-23T15:49:07;15.20;95.30
37204;DHT22;23098;48.054;10.636;2023-03-23T15:51:35;15.20;95.10
37204;DHT22;23098;48.054;10.636;2023-03-23T15:54:01;15.20;95.50
37204;DHT22;23098;48.054;10.636;2023-03-23T15:56:27;15.10;95.20
37204;DHT22;23098;48.054;10.636;2023-03-23T15:58:52;15.00;95.50
37204;DHT22;23098;48.054;10.636;2023-03-23T16:01:20;14.90;95.40
37204;DHT22;23098;48.054;10.636;2023-03-23T16:03:51;14.90;95.30
37204;DHT22;23098;48.054;10.636;2023-03-23T16:06:19;14.90;95.60
37204;DHT22;23098;48.054;10.636;2023-03-23T16:08:45;14.80;95.90
37204;DHT22;23098;48.054;10.636;2023-03-23T16:11:12;14.80;96.00
37204;DHT22;23098;48.054;10.636;2023-03-23T16:13:39;14.70;96.10
37204;DHT22;23098;48.054;10.636;2023-03-23T16:16:11;14.60;96.30
37204;DHT22;23098;48.054;10.636;2023-03-23T16:18:38;14.60;96.80
37204;DHT22;23098;48.054;10.636;2023-03-23T16:21:04;14.50;97.30
37204;DHT22;23098;48.054;10.636;2023-03-23T16:23:29;14.40;97.50
37204;DHT22;23098;48.054;10.636;2023-03-23T16:25:55;14.40;97.60
37204;DHT22;23098;48.054;10.636;2023-03-23T16:28:20;14.30;97.60
37204;DHT22;23098;48.054;10.636;2023-03-23T16:30:46;14.30;97.70
37204;DHT22;23098;48.054;10.636;2023-03-23T16:33:12;14.30;98.00
37204;DHT22;23098;48.054;10.636;2023-03-23T16:35:38;14.30;97.80
37204;DHT22;23098;48.054;10.636;2023-03-23T16:38:04;14.30;98.10
37204;DHT22;23098;48.054;10.636;2023-03-23T16:40:31;14.30;97.70
37204;DHT22;23098;48.054;10.636;2023-03-23T16:42:58;14.30;97.70
37204;DHT22;23098;48.054;10.636;2023-03-23T16:45:24;14.40;97.60
37204;DHT22;23098;48.054;10.636;2023-03-23T16:47:51;14.30;97.40
37204;DHT22;23098;48.054;10.636;2023-03-23T16:50:20;14.30;97.70
37204;DHT22;23098;48.054;10.636;2023-03-23T16:52:46;14.30;97.40
37204;DHT22;23098;48.054;10.636;2023-03-23T16:55:12;14.20;97.60
37204;DHT22;23098;48.054;10.636;2023-03-23T16:57:38;14.20;97.60
37204;DHT22;23098;48.054;10.636;2023-03-23T17:00:07;14.20;97.50
37204;DHT22;23098;48.054;10.636;2023-03-23T17:02:34;14.20;97.60
37204;DHT22;23098;48.054;10.636;2023-03-23T17:05:00;14.10;97.60
37204;DHT22;23098;48.054;10.636;2023-03-23T17:07:29;14.10;97.80
37204;DHT22;23098;48.054;10.636;2023-03-23T17:09:55;14.00;97.90
37204;DHT22;23098;48.054;10.636;2023-03-23T17:12:20;14.10;97.90
37204;DHT22;23098;48.054;10.636;2023-03-23T17:14:46;14.00;98.10
37204;DHT22;23098;48.054;10.636;2023-03-23T17:17:12;14.00;97.90
37204;DHT22;23098;48.054;10.636;2023-03-23T17:19:37;14.00;98.10
37204;DHT22;23098;48.054;10.636;2023-03-23T17:22:03;14.00;98.20
37204;DHT22;23098;48.054;10.636;2023-03-23T17:24:29;13.90;98.30
37204;DHT22;23098;48.054;10.636;2023-03-23T17:26:55;13.80;98.20
37204;DHT22;23098;48.054;10.636;2023-03-23T17:29:20;13.80;98.50
37204;DHT22;23098;48.054;10.636;2023-03-23T17:31:50;13.80;98.60
37204;DHT22;23098;48.054;10.636;2023-03-23T17:34:16;13.70;98.70